This is the latest recevied weather packets stored in our database for station/object HS5NMF. If no packets are shown the sender has not sent any weather packets the latest 10 day(s).
| Time | Temp. | Humidity | Pressure | Rain* | Wind** | Luminosity | Snow |
|---|---|---|---|---|---|---|---|
| 1777467173 | 30° C | 71% | 976 hPa | - | - | 0 W/m² | - |
| 1777466849 | 30.56° C | 66% | 976 hPa | - | - | 0 W/m² | - |
| 1777466525 | 31.11° C | 64% | 976 hPa | - | - | 0 W/m² | - |
| 1777466200 | 31.11° C | 63% | 976 hPa | - | - | 0 W/m² | - |
| 1777465877 | 31.11° C | 64% | 976 hPa | - | - | 0 W/m² | - |
| 1777465553 | 31.11° C | 64% | 976 hPa | - | - | 0 W/m² | - |
| 1777465231 | 31.11° C | 64% | 976 hPa | - | - | 0 W/m² | - |
| 1777464905 | 31.11° C | 64% | 976 hPa | - | - | 0 W/m² | - |
| 1777464582 | 31.11° C | 66% | 976 hPa | - | - | 0 W/m² | - |
| 1777464259 | 31.11° C | 67% | 976 hPa | - | - | 0 W/m² | - |
| 1777463937 | 30.56° C | 69% | 976 hPa | - | - | 0 W/m² | - |
| 1777463609 | 31.11° C | 68% | 976 hPa | - | - | 0 W/m² | - |
| 1777463286 | 30.56° C | 70% | 976 hPa | - | - | 0 W/m² | - |
| 1777462961 | 30.56° C | 71% | 976 hPa | - | - | 0 W/m² | - |
| 1777462636 | 30.56° C | 72% | 976 hPa | - | - | 0 W/m² | - |
| 1777462310 | 30.56° C | 73% | 976 hPa | - | - | 0 W/m² | - |
| 1777461986 | 31.11° C | 73% | 975 hPa | - | - | 0 W/m² | - |
| 1777461662 | 31.11° C | 75% | 975 hPa | - | - | 0 W/m² | - |
| 1777461336 | 31.11° C | 75% | 975 hPa | - | - | 0 W/m² | - |
| 1777461014 | 31.11° C | 74% | 976 hPa | - | - | 0 W/m² | - |
| 1777460690 | 32.22° C | 68% | 975 hPa | - | - | 0 W/m² | - |
| 1777460367 | 31.67° C | 69% | 975 hPa | - | - | 0 W/m² | - |
| 1777460043 | 32.22° C | 67% | 975 hPa | - | - | 0 W/m² | - |
| 1777459717 | 31.67° C | 68% | 975 hPa | - | - | 0 W/m² | - |
| 1777459380 | 32.78° C | 66% | 975 hPa | - | - | 0 W/m² | - |
* Rain since midnight (hover to see other rain measurements)
** Current wind speed in m/s (hover to see current wind gust speed)